Time;durP1;ratioP1;P1;durP2;ratioP2;P2;SDS_P1;SDS_P2;PMS_P1;PMS_P2;Temp;Humidity;BMP_temperature;BMP_pressure;BME280_temperature;BME280_humidity;BME280_pressure;Samples;Min_cycle;Max_cycle;Signal;HPM_P1;HPM_P2
2023/03/08 00:00:24;;;;;;;3.33;2.95;;;;;;;6.44;74.49;62662.94;5043690;28;20206;-79
2023/03/08 00:02:52;;;;;;;2.88;2.63;;;;;;;6.36;75.47;62654.69;5047151;28;20237;-79
2023/03/08 00:05:19;;;;;;;3.28;2.63;;;;;;;6.32;76.14;62651.06;5045902;28;20261;-77
2023/03/08 00:07:46;;;;;;;3.53;3.05;;;;;;;6.40;76.64;62661.84;5045857;28;20546;-79
2023/03/08 00:10:13;;;;;;;3.40;2.65;;;;;;;6.35;77.45;62651.63;5045589;28;20213;-80
2023/03/08 00:12:40;;;;;;;6.38;2.67;;;;;;;6.38;76.44;62662.34;5043542;28;20248;-82
2023/03/08 00:15:09;;;;;;;4.05;3.10;;;;;;;6.40;76.14;62656.78;5045808;28;20240;-79
2023/03/08 00:17:37;;;;;;;5.43;4.30;;;;;;;6.37;76.29;62655.72;5027687;28;20227;-78
2023/03/08 00:20:06;;;;;;;4.80;3.10;;;;;;;6.32;75.96;62648.56;5038536;28;20274;-78
2023/03/08 00:22:35;;;;;;;3.10;2.83;;;;;;;6.36;75.79;62650.16;5045901;28;20241;-80
2023/03/08 00:25:02;;;;;;;3.80;3.10;;;;;;;6.34;75.82;62660.72;5046415;28;20197;-77
2023/03/08 00:27:29;;;;;;;3.10;2.90;;;;;;;6.40;76.05;62659.31;5045623;28;20217;-79
2023/03/08 00:29:57;;;;;;;7.47;3.00;;;;;;;6.12;77.87;62627.41;5042569;28;20549;-80
2023/03/08 00:32:27;;;;;;;3.28;2.85;;;;;;;6.19;77.65;62639.69;5045915;28;20214;-77
2023/03/08 00:34:54;;;;;;;2.60;2.40;;;;;;;6.02;77.89;62622.16;5047587;28;20276;-78
2023/03/08 00:37:22;;;;;;;3.05;2.80;;;;;;;6.12;78.26;62627.94;5042979;28;20222;-77
2023/03/08 00:39:52;;;;;;;2.55;2.35;;;;;;;6.19;77.63;62637.16;5043111;28;20362;-79
2023/03/08 00:42:19;;;;;;;4.05;3.00;;;;;;;6.02;78.58;62617.63;5045099;28;20234;-79
2023/03/08 00:44:46;;;;;;;2.10;1.95;;;;;;;6.03;78.21;62618.66;5047173;28;20202;-78
2023/03/08 00:47:13;;;;;;;4.93;2.50;;;;;;;6.03;78.48;62621.19;5041782;28;20218;-77
2023/03/08 00:49:42;;;;;;;2.38;2.28;;;;;;;6.04;78.77;62622.22;5044108;28;20198;-77
2023/03/08 00:52:09;;;;;;;4.95;2.88;;;;;;;5.94;79.82;62611.41;5047639;28;20277;-78
2023/03/08 00:54:36;;;;;;;3.75;2.67;;;;;;;5.90;80.24;62605.28;5041970;28;20545;-77
2023/03/08 00:57:04;;;;;;;3.90;2.38;;;;;;;5.82;80.47;62597.00;5041921;28;20421;-79
2023/03/08 00:59:30;;;;;;;3.00;2.53;;;;;;;5.76;80.14;62593.34;5038763;28;20198;-77
2023/03/08 01:01:57;;;;;;;5.72;2.83;;;;;;;5.88;80.36;62606.22;5045895;28;20245;-79
2023/03/08 01:04:25;;;;;;;3.58;3.05;;;;;;;5.83;80.57;62603.59;5034989;28;20203;-80
2023/03/08 01:06:53;;;;;;;3.45;2.97;;;;;;;5.81;80.68;62601.03;5044885;28;20287;-77
2023/03/08 01:09:20;;;;;;;3.22;2.83;;;;;;;5.75;81.38;62590.31;5048275;28;20422;-78
2023/03/08 01:11:47;;;;;;;4.22;2.40;;;;;;;5.67;82.37;62577.00;5047993;28;20452;-77
2023/03/08 01:14:14;;;;;;;2.50;2.28;;;;;;;5.75;82.24;62589.78;5043797;28;20214;-77
2023/03/08 01:16:41;;;;;;;6.65;2.83;;;;;;;5.82;82.34;62594.47;5045858;28;20254;-76
2023/03/08 01:19:10;;;;;;;3.58;2.97;;;;;;;5.78;82.58;62595.91;5047849;28;20225;-76
2023/03/08 01:21:37;;;;;;;3.38;2.83;;;;;;;5.73;82.96;62590.25;5047370;28;22579;-76
2023/03/08 01:24:06;;;;;;;2.47;2.00;;;;;;;5.72;83.07;62589.75;5047083;28;20257;-78
2023/03/08 01:26:33;;;;;;;3.15;2.88;;;;;;;5.65;83.02;62582.00;5047518;28;20253;-77
2023/03/08 01:29:00;;;;;;;2.55;2.35;;;;;;;5.61;84.08;62575.34;5047415;28;20252;-78
2023/03/08 01:31:29;;;;;;;3.03;2.58;;;;;;;5.60;84.00;62579.91;5044844;28;20226;-79
2023/03/08 01:33:56;;;;;;;3.00;2.65;;;;;;;5.61;84.67;62575.88;5047749;28;20198;-76
2023/03/08 01:36:25;;;;;;;3.25;3.05;;;;;;;5.65;85.61;62582.53;5048765;28;20278;-77
2023/03/08 01:38:52;;;;;;;2.85;2.65;;;;;;;5.65;86.27;62577.47;5047019;28;20208;-77
2023/03/08 01:41:23;;;;;;;3.10;2.65;;;;;;;5.81;86.37;62596.50;5043458;28;20225;-78
2023/03/08 01:43:50;;;;;;;4.82;2.70;;;;;;;5.73;85.70;62593.28;5047126;28;20238;-77
2023/03/08 01:46:25;;;;;;;5.47;2.78;;;;;;;5.81;85.54;62599.03;5047005;28;20222;-76
2023/03/08 01:48:58;;;;;;;3.05;2.80;;;;;;;5.81;85.21;62599.03;5044636;28;20236;-76
2023/03/08 01:51:31;;;;;;;2.92;2.30;;;;;;;5.60;85.66;62576.84;5047947;28;20293;-77
2023/03/08 01:54:01;;;;;;;4.50;4.15;;;;;;;5.60;85.50;62576.84;5047452;28;20194;-76
2023/03/08 01:56:30;;;;;;;4.35;3.00;;;;;;;5.72;85.57;62586.69;5046901;28;20222;-78
2023/03/08 01:58:57;;;;;;;3.33;2.90;;;;;;;5.47;86.28;62566.50;5043758;28;20230;-76
2023/03/08 02:01:24;;;;;;;3.35;3.15;;;;;;;5.62;86.45;62576.38;5046973;28;20253;-77
2023/03/08 02:03:51;;;;;;;2.88;2.60;;;;;;;5.64;86.38;62580.97;5042961;28;20293;-77
2023/03/08 02:06:20;;;;;;;2.65;2.42;;;;;;;5.58;85.68;62572.78;5028758;28;20389;-77
2023/03/08 02:08:48;;;;;;;3.80;2.40;;;;;;;5.59;85.03;62573.81;5046639;28;20202;-77
2023/03/08 02:11:17;;;;;;;2.75;2.55;;;;;;;5.56;85.62;62572.72;5046666;28;20285;-74
2023/03/08 02:13:47;;;;;;;3.03;2.75;;;;;;;5.57;85.72;62576.28;5047956;28;20197;-77
2023/03/08 02:16:17;;;;;;;4.72;2.90;;;;;;;5.58;86.36;62574.78;5044670;28;20233;-78
2023/03/08 02:18:53;;;;;;;5.72;3.30;;;;;;;5.54;87.09;62571.19;5047297;28;20202;-78
2023/03/08 02:21:20;;;;;;;3.22;3.03;;;;;;;5.59;86.96;62573.31;5048391;28;20222;-76
2023/03/08 02:23:48;;;;;;;3.38;2.80;;;;;;;5.56;86.76;62572.72;5048923;28;20239;-78
2023/03/08 02:26:16;;;;;;;4.65;3.50;;;;;;;5.58;87.20;62567.72;5045335;28;20531;-77
2023/03/08 02:28:44;;;;;;;5.30;4.80;;;;;;;5.49;87.05;62560.97;5049360;28;20194;-78
2023/03/08 02:31:11;;;;;;;4.07;3.78;;;;;;;5.52;87.52;62569.13;5049966;28;20218;-77
2023/03/08 02:33:39;;;;;;;4.32;3.70;;;;;;;5.44;87.45;62558.34;5045317;28;20528;-76
2023/03/08 02:36:08;;;;;;;6.65;4.28;;;;;;;5.56;87.98;62573.25;5047603;28;20205;-78
2023/03/08 02:38:36;;;;;;;5.28;3.80;;;;;;;5.53;87.86;62572.16;5047375;28;20423;-75
2023/03/08 02:41:04;;;;;;;3.47;3.17;;;;;;;5.52;88.07;62564.06;5049693;28;20206;-77
2023/03/08 02:43:31;;;;;;;3.53;2.55;;;;;;;5.45;87.75;62561.91;5044621;28;20230;-78
2023/03/08 02:45:58;;;;;;;4.57;4.13;;;;;;;5.45;88.21;62556.34;5047749;28;20198;-77
2023/03/08 02:48:25;;;;;;;7.18;3.92;;;;;;;5.39;88.38;62560.78;5047342;28;20198;-76
2023/03/08 02:50:52;;;;;;;4.50;2.63;;;;;;;5.31;89.68;62544.47;5047035;28;20189;-78
2023/03/08 02:53:19;;;;;;;3.42;2.80;;;;;;;5.29;89.29;62542.91;5044264;28;20204;-77
2023/03/08 02:55:46;;;;;;;3.15;2.72;;;;;;;5.29;89.00;62544.91;5046726;28;20282;-78
2023/03/08 02:58:15;;;;;;;4.63;3.95;;;;;;;5.21;89.55;62539.22;5046971;28;20208;-77
2023/03/08 03:00:43;;;;;;;3.10;2.72;;;;;;;5.21;90.21;62532.13;5045700;28;20206;-77
2023/03/08 03:03:09;;;;;;;3.28;3.08;;;;;;;4.98;92.23;62513.00;5046464;28;20249;-77
2023/03/08 03:05:43;;;;;;;7.97;3.05;;;;;;;4.93;93.40;62503.31;5047043;28;20494;-76
2023/03/08 03:08:10;;;;;;;5.13;3.25;;;;;;;4.96;94.09;62510.94;5046412;28;20218;-77
2023/03/08 03:10:38;;;;;;;3.05;2.85;;;;;;;4.89;95.10;62501.19;5038442;28;20199;-76
2023/03/08 03:13:06;;;;;;;3.78;3.30;;;;;;;4.87;95.69;62504.69;5026607;28;20269;-77
2023/03/08 03:15:37;;;;;;;3.03;2.83;;;;;;;4.78;96.49;62489.88;5026574;28;20198;-76
2023/03/08 03:18:05;;;;;;;3.75;3.45;;;;;;;4.78;97.11;62492.41;5026887;28;20226;-77
2023/03/08 03:20:33;;;;;;;7.20;3.88;;;;;;;4.76;97.82;62490.88;5044283;28;20252;-77
2023/03/08 03:22:59;;;;;;;3.55;3.25;;;;;;;4.78;98.19;62492.91;5045818;28;20263;-77
2023/03/08 03:25:26;;;;;;;3.92;3.60;;;;;;;4.82;98.43;62499.56;5046613;28;20201;-78
2023/03/08 03:27:54;;;;;;;6.88;2.88;;;;;;;4.73;98.45;62490.28;5042487;28;20221;-78
2023/03/08 03:30:22;;;;;;;4.18;3.22;;;;;;;4.64;99.99;62473.97;5026668;28;20237;-76
2023/03/08 03:32:50;;;;;;;4.10;3.60;;;;;;;4.69;99.98;62481.13;5025873;28;20253;-76
2023/03/08 03:35:17;;;;;;;3.92;3.50;;;;;;;4.69;100.00;62479.13;5044244;28;20202;-77
2023/03/08 03:37:44;;;;;;;6.53;3.80;;;;;;;4.68;100.00;62480.63;5043070;28;20218;-77
2023/03/08 03:40:13;;;;;;;6.05;3.60;;;;;;;4.72;100.00;62484.75;5045514;28;20202;-76
2023/03/08 03:42:39;;;;;;;4.93;3.72;;;;;;;4.73;100.00;62485.75;5045107;28;20233;-77
2023/03/08 03:45:07;;;;;;;3.08;2.88;;;;;;;4.69;100.00;62478.63;5046825;28;20209;-77
2023/03/08 03:47:34;;;;;;;3.88;3.22;;;;;;;4.66;100.00;62483.06;5040383;28;20226;-77
2023/03/08 03:50:04;;;;;;;8.55;4.05;;;;;;;4.65;100.00;62482.06;5045438;28;20202;-77
2023/03/08 03:52:31;;;;;;;5.90;3.88;;;;;;;4.69;100.00;62478.63;5047164;28;20290;-77
2023/03/08 03:54:58;;;;;;;5.25;3.40;;;;;;;4.62;100.00;62471.91;5042134;28;20205;-77
2023/03/08 03:57:25;;;;;;;3.92;3.45;;;;;;;4.61;100.00;62472.88;5044761;28;20222;-76
2023/03/08 03:59:52;;;;;;;5.03;4.40;;;;;;;4.58;100.00;62470.31;5046252;28;20217;-78
2023/03/08 04:02:19;;;;;;;4.97;3.78;;;;;;;4.59;100.00;62471.34;5045183;28;20651;-77
2023/03/08 04:04:50;;;;;;;10.13;4.05;;;;;;;4.56;100.00;62475.81;5043069;28;20230;-76
2023/03/08 04:07:18;;;;;;;4.53;4.10;;;;;;;4.47;100.00;62458.47;5045410;28;20498;-77
2023/03/08 04:09:46;;;;;;;9.50;4.70;;;;;;;4.47;100.00;62461.50;5046188;28;20386;-77
2023/03/08 04:12:13;;;;;;;5.55;3.97;;;;;;;4.64;100.00;62476.00;5044407;28;20534;-76
2023/03/08 04:14:40;;;;;;;6.40;4.38;;;;;;;4.62;100.00;62471.91;5043161;28;20487;-77
2023/03/08 04:17:08;;;;;;;6.60;3.95;;;;;;;4.52;100.00;62461.63;5047545;28;20218;-77
2023/03/08 04:19:35;;;;;;;4.63;4.20;;;;;;;4.62;100.00;62473.94;5045882;28;20563;-78
2023/03/08 04:22:02;;;;;;;9.15;4.55;;;;;;;4.68;100.00;62482.63;5042157;28;20222;-77
2023/03/08 04:24:30;;;;;;;6.07;4.53;;;;;;;4.69;100.00;62484.16;5044073;28;20237;-77
2023/03/08 04:26:57;;;;;;;8.43;4.53;;;;;;;4.73;100.00;62490.28;5028852;28;20245;-76
2023/03/08 04:29:24;;;;;;;4.25;3.85;;;;;;;4.72;100.00;62484.22;5045275;28;20194;-78
2023/03/08 04:31:51;;;;;;;3.88;3.65;;;;;;;4.72;100.00;62484.22;5034230;28;20254;-78
2023/03/08 04:34:18;;;;;;;3.15;2.80;;;;;;;4.82;100.00;62494.50;5044082;28;20510;-76
2023/03/08 04:36:45;;;;;;;4.82;4.03;;;;;;;4.94;100.00;62508.88;5049562;28;20248;-79
2023/03/08 04:39:12;;;;;;;6.18;4.72;;;;;;;4.83;100.00;62495.56;5044509;28;20427;-77
2023/03/08 04:41:40;;;;;;;12.45;4.93;;;;;;;4.66;100.00;62483.06;5047117;28;20222;-78
2023/03/08 04:44:08;;;;;;;5.80;4.63;;;;;;;4.65;100.00;62479.53;5048062;28;20254;-77
2023/03/08 04:46:35;;;;;;;5.75;4.95;;;;;;;4.66;100.00;62480.56;5048697;28;20222;-76
2023/03/08 04:49:02;;;;;;;5.10;4.53;;;;;;;4.73;100.00;62485.25;5046289;28;20277;-77
2023/03/08 04:51:29;;;;;;;6.25;4.65;;;;;;;4.74;100.00;62491.31;5048594;28;20400;-77
2023/03/08 04:53:56;;;;;;;6.22;4.80;;;;;;;4.65;100.00;62480.06;5048283;28;20251;-77
2023/03/08 04:56:23;;;;;;;7.80;5.18;;;;;;;4.64;100.00;62476.00;5050301;28;20253;-77
2023/03/08 04:58:51;;;;;;;8.70;5.07;;;;;;;4.65;100.00;62480.06;5049482;28;20479;-79
2023/03/08 05:01:21;;;;;;;8.48;4.97;;;;;;;4.64;100.00;62476.00;5045275;28;20222;-78
2023/03/08 05:03:48;;;;;;;9.70;4.90;;;;;;;4.69;100.00;62483.66;5047761;28;20293;-79
2023/03/08 05:06:15;;;;;;;11.70;6.18;;;;;;;4.66;100.00;62480.56;5048459;28;20248;-79
2023/03/08 05:08:43;;;;;;;7.68;4.93;;;;;;;4.73;100.00;62483.22;5045898;28;20265;-77
2023/03/08 05:11:10;;;;;;;10.73;5.25;;;;;;;4.72;100.00;62487.25;5048633;28;20221;-78
2023/03/08 05:13:39;;;;;;;4.75;4.28;;;;;;;4.69;100.00;62481.13;5047798;28;20206;-78
2023/03/08 05:16:07;;;;;;;5.00;4.50;;;;;;;4.75;100.00;62489.81;5049491;28;20198;-76
2023/03/08 05:18:35;;;;;;;6.13;4.75;;;;;;;4.60;100.00;62474.38;5047277;28;20194;-77
2023/03/08 05:21:05;;;;;;;7.50;4.82;;;;;;;4.69;100.00;62479.13;5048568;28;20218;-77
2023/03/08 05:23:32;;;;;;;6.82;4.25;;;;;;;4.72;100.00;62487.25;5046389;28;20413;-77
2023/03/08 05:26:01;;;;;;;14.73;5.85;;;;;;;4.88;100.00;62500.16;5040934;28;20202;-78
2023/03/08 05:28:31;;;;;;;7.88;5.50;;;;;;;5.07;100.00;62522.25;5045074;28;20206;-78
2023/03/08 05:31:02;;;;;;;6.40;5.28;;;;;;;5.14;100.00;62526.94;5047229;28;20198;-79
2023/03/08 05:33:31;;;;;;;8.68;6.00;;;;;;;5.17;100.00;62530.56;5046001;28;20210;-80
2023/03/08 05:35:58;;;;;;;7.63;5.35;;;;;;;5.29;100.00;62544.91;5043346;28;20208;-77
2023/03/08 05:38:25;;;;;;;12.38;5.78;;;;;;;5.32;100.00;62551.03;5047243;28;20240;-78
2023/03/08 05:40:53;;;;;;;6.00;4.70;;;;;;;5.34;100.00;62547.53;5044931;28;20198;-77
2023/03/08 05:43:20;;;;;;;6.90;5.40;;;;;;;5.30;100.00;62543.41;5045951;28;20202;-76
2023/03/08 05:45:58;;;;;;;9.23;6.18;;;;;;;5.32;100.00;62546.00;5045267;28;20210;-78
2023/03/08 05:48:25;;;;;;;9.40;5.13;;;;;;;5.41;100.00;62555.28;5047710;28;20197;-78
2023/03/08 05:50:54;;;;;;;9.10;5.93;;;;;;;5.36;100.00;62552.13;5046586;28;20206;-77
2023/03/08 05:53:21;;;;;;;7.72;5.78;;;;;;;5.35;100.00;62551.59;5045639;28;20209;-77
2023/03/08 05:55:48;;;;;;;6.68;4.45;;;;;;;5.19;100.00;62537.66;5047070;28;20198;-77
2023/03/08 05:58:16;;;;;;;5.63;4.72;;;;;;;5.30;100.00;62546.47;5046417;28;20225;-77
2023/03/08 06:00:43;;;;;;;7.95;5.20;;;;;;;5.34;100.00;62547.53;5046972;28;20201;-78
2023/03/08 06:03:09;;;;;;;6.20;4.93;;;;;;;5.36;100.00;62552.13;5045916;28;20236;-79
2023/03/08 06:05:37;;;;;;;5.45;4.45;;;;;;;5.42;100.00;62555.78;5041675;28;20244;-78
2023/03/08 06:08:06;;;;;;;6.55;4.32;;;;;;;5.52;100.00;62568.63;5045385;28;20653;-79
2023/03/08 06:10:33;;;;;;;8.85;4.63;;;;;;;5.65;100.00;62582.53;5044044;28;20221;-77
2023/03/08 06:13:03;;;;;;;10.50;5.18;;;;;;;5.69;100.00;62583.59;5045565;28;20232;-78
2023/03/08 06:15:30;;;;;;;10.40;5.50;;;;;;;5.84;100.00;62601.59;5042608;28;20210;-78
2023/03/08 06:17:57;;;;;;;11.95;6.68;;;;;;;5.88;100.00;62602.69;5043121;28;20222;-78
2023/03/08 06:20:24;;;;;;;9.40;6.60;;;;;;;5.80;100.00;62595.44;4970594;28;2226926;-77
2023/03/08 06:22:50;;;;;;;7.47;5.75;;;;;;;5.95;100.00;62612.94;5047086;28;20534;-79
2023/03/08 06:25:19;;;;;;;7.65;6.07;;;;;;;6.14;100.00;62632.00;5048699;28;20198;-78
2023/03/08 06:27:46;;;;;;;12.75;5.95;;;;;;;6.26;100.00;62644.38;5041404;28;20218;-78
2023/03/08 06:30:13;;;;;;;7.22;5.38;;;;;;;6.40;99.85;62656.28;5049360;28;20206;-76
2023/03/08 06:32:41;;;;;;;10.30;4.93;;;;;;;6.39;98.82;62655.25;5050071;28;20268;-77
2023/03/08 06:35:09;;;;;;;5.80;4.65;;;;;;;6.41;98.37;62654.78;5047336;28;20202;-77
2023/03/08 06:37:36;;;;;;;11.45;5.07;;;;;;;6.46;98.16;62665.00;5043402;28;20236;-78
2023/03/08 06:40:04;;;;;;;12.90;6.15;;;;;;;6.43;97.66;62659.38;5046507;28;20201;-79
2023/03/08 06:42:32;;;;;;;7.97;5.28;;;;;;;6.33;97.98;62647.06;5045489;28;20229;-77
2023/03/08 06:44:59;;;;;;;6.40;4.53;;;;;;;6.38;97.65;62654.75;5048127;28;20231;-77
2023/03/08 06:47:29;;;;;;;7.47;5.50;;;;;;;6.48;97.08;62667.59;5046593;28;20224;-80
2023/03/08 06:49:56;;;;;;;7.15;6.07;;;;;;;6.45;96.81;62656.91;5045032;28;20198;-78
2023/03/08 06:52:23;;;;;;;10.68;5.30;;;;;;;6.35;97.28;62648.59;5045779;28;20273;-78
2023/03/08 06:54:50;;;;;;;6.82;5.55;;;;;;;6.42;97.73;62658.34;5047297;28;20233;-78
2023/03/08 06:57:17;;;;;;;7.03;5.20;;;;;;;6.48;97.39;62665.06;5043810;28;20218;-78
2023/03/08 06:59:46;;;;;;;6.78;5.13;;;;;;;6.40;97.25;62653.75;5047411;28;20400;-77
2023/03/08 07:02:13;;;;;;;11.00;5.13;;;;;;;6.37;97.38;62656.22;5046449;28;20268;-79
2023/03/08 07:04:40;;;;;;;7.18;4.93;;;;;;;6.49;96.92;62663.53;5046954;28;20256;-78
2023/03/08 07:07:07;;;;;;;9.68;5.88;;;;;;;6.52;95.97;62671.19;5045730;28;20502;-78
2023/03/08 07:09:34;;;;;;;5.50;5.00;;;;;;;6.52;96.29;62676.75;5048315;28;20217;-78
2023/03/08 07:12:01;;;;;;;6.63;5.00;;;;;;;6.63;96.10;62682.53;5049322;28;20220;-78
2023/03/08 07:14:28;;;;;;;5.70;5.18;;;;;;;6.75;95.09;62692.88;5045183;28;20667;-78
2023/03/08 07:16:57;;;;;;;7.25;4.72;;;;;;;6.90;94.46;62705.81;5046806;28;20225;-79
2023/03/08 07:19:23;;;;;;;6.28;4.50;;;;;;;7.10;93.72;62731.00;5039449;28;20199;-78
2023/03/08 07:21:50;;;;;;;7.43;4.45;;;;;;;7.29;92.73;62750.63;5043772;28;20224;-77
2023/03/08 07:24:17;;;;;;;6.45;4.78;;;;;;;7.49;91.59;62766.19;5044897;28;20226;-77
2023/03/08 07:26:45;;;;;;;6.82;4.75;;;;;;;7.69;89.82;62789.38;5047374;28;20224;-78
2023/03/08 07:29:12;;;;;;;6.85;4.95;;;;;;;7.69;89.75;62794.44;5044728;28;20214;-79
2023/03/08 07:31:38;;;;;;;6.18;4.85;;;;;;;7.93;88.77;62819.22;5047705;28;20218;-77
2023/03/08 07:34:07;;;;;;;8.95;4.07;;;;;;;8.39;85.49;62863.19;5042801;28;20241;-78
2023/03/08 07:36:33;;;;;;;7.00;3.80;;;;;;;8.65;81.35;62892.56;5046331;28;20218;-78
2023/03/08 07:39:00;;;;;;;9.70;3.80;;;;;;;8.82;79.42;62907.59;5042583;28;20217;-78
2023/03/08 07:41:30;;;;;;;5.70;3.88;;;;;;;9.10;77.86;62939.59;5044006;28;20229;-80
2023/03/08 07:43:57;;;;;;;7.63;4.30;;;;;;;9.21;77.19;62945.88;5047138;28;20200;-78
2023/03/08 07:46:25;;;;;;;9.65;4.45;;;;;;;9.40;75.86;62967.56;5047184;28;20438;-78
2023/03/08 07:48:53;;;;;;;6.43;4.20;;;;;;;9.27;76.33;62949.56;5037816;28;20198;-78
2023/03/08 07:51:21;;;;;;;6.53;4.13;;;;;;;9.44;75.65;62971.19;5041168;28;20229;-79
2023/03/08 07:53:48;;;;;;;4.00;3.70;;;;;;;9.80;74.59;63006.38;5043966;28;20202;-79
2023/03/08 07:56:15;;;;;;;8.23;4.28;;;;;;;9.84;72.17;63007.97;5046335;28;20225;-77
2023/03/08 07:58:42;;;;;;;7.07;4.22;;;;;;;9.88;70.38;63014.13;5040377;28;20205;-79
2023/03/08 08:01:10;;;;;;;4.55;3.72;;;;;;;9.92;70.85;63023.88;5042825;28;20221;-78
2023/03/08 08:03:37;;;;;;;4.88;4.18;;;;;;;10.10;70.57;63037.44;5046687;28;20327;-77
2023/03/08 08:06:04;;;;;;;5.90;3.95;;;;;;;10.13;70.12;63045.13;5045407;28;20240;-78
2023/03/08 08:08:34;;;;;;;4.70;4.00;;;;;;;10.17;67.72;63047.22;5043081;28;20439;-79
2023/03/08 08:11:01;;;;;;;7.25;4.60;;;;;;;10.16;69.05;63046.16;5043390;28;20202;-78
2023/03/08 08:13:28;;;;;;;7.35;3.92;;;;;;;10.16;69.63;63043.63;5044349;28;20225;-77
2023/03/08 08:15:59;;;;;;;3.97;3.38;;;;;;;10.28;67.94;63058.09;5045481;28;20514;-78
2023/03/08 08:18:26;;;;;;;4.43;3.88;;;;;;;10.34;67.46;63062.25;5048879;28;20198;-77
2023/03/08 08:21:00;;;;;;;8.65;3.60;;;;;;;10.62;66.40;63097.84;5048488;28;20213;-78
2023/03/08 08:23:27;;;;;;;13.35;7.45;;;;;;;10.40;65.60;63070.50;5047952;28;20209;-77
2023/03/08 08:25:55;;;;;;;9.65;5.20;;;;;;;10.60;65.35;63091.19;5047817;28;20456;-76
2023/03/08 08:28:24;;;;;;;5.65;4.38;;;;;;;10.41;65.72;63072.06;5047412;28;20208;-77
2023/03/08 08:30:59;;;;;;;15.57;8.25;;;;;;;10.22;65.74;63049.31;5042345;28;20233;-78
2023/03/08 08:33:27;;;;;;;13.10;6.15;;;;;;;9.99;67.56;63025.53;5040239;28;20202;-77
2023/03/08 08:35:54;;;;;;;6.38;5.78;;;;;;;9.57;69.98;62987.69;5039652;28;20214;-78
2023/03/08 08:38:21;;;;;;;8.50;4.35;;;;;;;10.22;69.46;63049.84;5049824;28;20304;-77
2023/03/08 08:40:48;;;;;;;7.55;4.55;;;;;;;10.56;67.35;63089.59;5049221;28;20213;-78
2023/03/08 08:43:17;;;;;;;4.97;3.80;;;;;;;10.87;65.19;63118.63;5049021;28;20399;-77
2023/03/08 08:45:44;;;;;;;9.55;3.85;;;;;;;11.09;62.93;63138.84;5046176;28;20244;-76
2023/03/08 08:48:12;;;;;;;6.80;4.38;;;;;;;11.02;63.42;63132.13;5049093;28;20217;-77
2023/03/08 08:50:39;;;;;;;4.47;3.50;;;;;;;11.32;61.19;63162.69;5049438;28;20346;-77
2023/03/08 08:53:07;;;;;;;7.05;3.75;;;;;;;11.44;60.55;63177.66;5045331;28;20565;-79
2023/03/08 08:55:34;;;;;;;8.27;3.72;;;;;;;11.67;59.31;63198.94;5036797;28;20198;-78
2023/03/08 08:58:02;;;;;;;4.40;4.00;;;;;;;11.94;58.62;63226.91;5039305;28;20328;-78
2023/03/08 09:00:32;;;;;;;5.35;4.13;;;;;;;12.29;56.74;63262.66;5043350;28;20261;-78
2023/03/08 09:02:59;;;;;;;8.00;4.00;;;;;;;12.15;55.94;63246.13;5046927;28;20216;-79
2023/03/08 09:05:26;;;;;;;4.38;3.95;;;;;;;12.02;57.57;63235.22;5046493;28;20561;-77
2023/03/08 09:07:53;;;;;;;7.90;4.43;;;;;;;11.70;58.27;63207.16;5045129;28;20222;-77
2023/03/08 09:10:20;;;;;;;6.93;4.03;;;;;;;12.20;58.13;63256.41;5041488;28;20206;-77
2023/03/08 09:12:47;;;;;;;8.63;5.05;;;;;;;12.60;56.61;63295.34;5036983;28;20231;-78
2023/03/08 09:15:14;;;;;;;5.78;4.53;;;;;;;12.38;56.87;63272.00;5042851;28;20292;-77
2023/03/08 09:17:43;;;;;;;9.98;5.47;;;;;;;12.71;56.03;63308.78;5044341;28;20222;-79
2023/03/08 09:20:11;;;;;;;5.57;3.80;;;;;;;12.76;53.67;63311.41;5045734;28;20225;-79
2023/03/08 09:22:39;;;;;;;5.40;4.00;;;;;;;12.09;56.09;63245.03;5048184;28;20297;-78
2023/03/08 09:25:08;;;;;;;23.88;16.48;;;;;;;12.44;55.60;63275.69;5047628;28;20549;-78
2023/03/08 09:27:36;;;;;;;10.73;4.65;;;;;;;12.16;54.63;63251.75;5038438;28;20263;-76
2023/03/08 09:30:03;;;;;;;8.18;5.15;;;;;;;12.17;55.78;63250.22;5028634;28;20218;-77
2023/03/08 09:32:33;;;;;;;10.68;4.35;;;;;;;12.21;54.39;63260.03;5039450;28;20219;-78
2023/03/08 09:35:03;;;;;;;9.75;4.50;;;;;;;12.29;55.16;63267.78;5047581;28;20388;-78
2023/03/08 09:37:30;;;;;;;4.75;4.32;;;;;;;12.69;54.28;63306.69;5046131;28;20213;-78
2023/03/08 09:39:57;;;;;;;7.85;4.47;;;;;;;12.27;54.00;63266.22;5042724;28;20211;-78
2023/03/08 09:42:27;;;;;;;7.43;6.00;;;;;;;12.24;56.61;63263.13;5040877;28;20221;-78
2023/03/08 09:45:06;;;;;;;7.43;3.85;;;;;;;12.68;54.34;63303.63;5047024;28;20230;-76
2023/03/08 09:47:42;;;;;;;7.10;5.28;;;;;;;12.96;53.65;63331.63;5047962;28;20218;-77
2023/03/08 09:50:25;;;;;;;6.53;5.60;;;;;;;12.84;53.49;63319.69;5047465;28;20186;-78
2023/03/08 09:52:58;;;;;;;6.63;4.85;;;;;;;12.41;53.90;63280.75;5039196;28;20232;-77
2023/03/08 09:55:29;;;;;;;12.43;6.05;;;;;;;11.93;55.12;63228.44;5046743;28;20422;-78
2023/03/08 09:57:59;;;;;;;8.60;4.85;;;;;;;12.33;53.96;63269.91;5040133;28;20218;-78
2023/03/08 10:00:29;;;;;;;5.85;4.28;;;;;;;11.90;55.45;63224.81;5037786;28;20257;-78
2023/03/08 10:03:13;;;;;;;5.03;4.63;;;;;;;11.98;55.40;63228.50;5045299;28;20368;-78
2023/03/08 10:05:49;;;;;;;13.85;5.07;;;;;;;12.14;54.63;63244.56;5049077;28;20252;-77
2023/03/08 10:08:20;;;;;;;7.40;5.00;;;;;;;12.42;53.72;63276.16;5045375;28;20218;-77
2023/03/08 10:10:54;;;;;;;8.70;4.82;;;;;;;12.44;52.68;63281.28;5044640;28;20198;-78
2023/03/08 10:13:30;;;;;;;3.85;3.20;;;;;;;12.68;51.58;63306.19;5046870;28;20236;-77
2023/03/08 10:16:10;;;;;;;4.43;4.03;;;;;;;12.84;52.07;63321.75;5038179;28;20226;-77
2023/03/08 10:18:44;;;;;;;9.35;4.32;;;;;;;12.87;51.79;63327.41;5040317;28;20213;-77
2023/03/08 10:21:17;;;;;;;6.00;4.90;;;;;;;13.04;51.54;63337.38;5046276;28;20233;-79
2023/03/08 10:23:46;;;;;;;11.32;4.78;;;;;;;13.32;49.67;63374.63;5039232;28;20225;-77
2023/03/08 10:26:16;;;;;;;8.60;4.38;;;;;;;13.56;49.61;63399.00;5046927;28;20360;-78
2023/03/08 10:28:43;;;;;;;5.43;3.70;;;;;;;13.68;49.73;63411.47;5045231;28;20233;-78
2023/03/08 10:31:20;;;;;;;5.10;3.78;;;;;;;13.64;48.30;63402.19;5040729;28;20253;-77
2023/03/08 10:33:49;;;;;;;5.35;3.90;;;;;;;13.44;48.56;63384.00;5043505;28;20198;-77
2023/03/08 10:36:22;;;;;;;6.97;3.70;;;;;;;13.32;49.32;63371.56;5045919;28;20218;-78
2023/03/08 10:39:06;;;;;;;6.50;3.38;;;;;;;13.51;49.34;63393.81;5044915;28;20387;-79
2023/03/08 10:41:40;;;;;;;5.60;4.18;;;;;;;13.88;48.76;63432.75;5039487;28;20610;-76
2023/03/08 10:44:14;;;;;;;8.32;4.85;;;;;;;13.89;48.25;63431.22;5043941;28;20201;-77
2023/03/08 10:46:47;;;;;;;4.43;4.03;;;;;;;13.88;48.20;63429.66;5047727;28;20234;-77
2023/03/08 10:49:17;;;;;;;4.40;4.07;;;;;;;13.87;47.94;63428.63;5045710;28;20502;-77
2023/03/08 10:51:57;;;;;;;9.35;4.80;;;;;;;13.79;48.07;63415.19;5042197;28;20218;-76
2023/03/08 10:54:24;;;;;;;4.45;3.90;;;;;;;13.78;48.45;63416.72;5045419;28;20268;-77
2023/03/08 10:56:55;;;;;;;8.10;5.05;;;;;;;13.75;48.72;63416.19;5045871;28;20313;-77
2023/03/08 10:59:31;;;;;;;6.97;4.90;;;;;;;13.97;47.69;63436.44;5045753;28;20237;-77
2023/03/08 11:02:00;;;;;;;10.80;5.03;;;;;;;14.13;47.98;63455.63;5045206;28;20248;-78
2023/03/08 11:04:30;;;;;;;7.25;4.72;;;;;;;14.42;48.39;63490.88;5046270;28;20194;-78
2023/03/08 11:07:11;;;;;;;4.88;4.40;;;;;;;14.89;47.83;63531.50;5044951;28;20279;-81
2023/03/08 11:09:38;;;;;;;11.15;6.15;;;;;;;14.77;46.59;63524.16;5047657;28;20193;-79
2023/03/08 11:12:05;;;;;;;9.98;6.07;;;;;;;14.79;46.09;63521.63;5046502;28;20235;-77
2023/03/08 11:14:32;;;;;;;10.57;5.82;;;;;;;14.73;46.27;63517.94;5045869;28;20243;-79
2023/03/08 11:17:13;;;;;;;6.47;5.70;;;;;;;14.92;45.09;63535.13;5045486;28;20222;-76
2023/03/08 11:19:52;;;;;;;9.38;5.10;;;;;;;15.19;44.57;63562.66;5046044;28;20212;-77
2023/03/08 11:22:33;;;;;;;10.38;5.13;;;;;;;15.45;44.33;63592.25;5033583;28;20443;-77
2023/03/08 11:25:14;;;;;;;8.30;5.25;;;;;;;15.57;44.63;63607.31;5044063;28;20205;-78
2023/03/08 11:28:01;;;;;;;10.32;4.90;;;;;;;15.61;42.90;63608.91;5047337;28;20581;-77
2023/03/08 11:30:38;;;;;;;6.32;4.53;;;;;;;14.83;43.87;63530.38;5040812;28;20194;-79
2023/03/08 11:33:42;;;;;;;5.53;4.00;;;;;;;14.29;45.47;63469.69;5046660;28;20387;-77
2023/03/08 11:36:15;;;;;;;5.53;3.42;;;;;;;14.49;44.86;63493.03;5047859;28;20224;-77
2023/03/08 11:38:47;;;;;;;4.25;3.45;;;;;;;14.47;45.65;63490.94;5046971;28;20540;-78
2023/03/08 11:41:22;;;;;;;4.60;4.25;;;;;;;14.56;44.92;63502.88;5040886;28;20239;-80
2023/03/08 11:44:20;;;;;;;4.32;3.28;;;;;;;14.60;44.40;63503.94;5045853;28;20259;-78